Terminal Aerodrome Forecast
Issued by NWS Topeka, KS

Home | Current Version | Previous Version | Text Only | Print | Product List | Glossary On
Versions: 1 2 3 4 5 6 7 8 9 10 11 12 13 14
000
FTUS43 KTOP 210751 AAA
TAFTOP
TAF AMD
KTOP 210751Z 2108/2206 18017G25KT P6SM BKN025
     FM212000 19017G25KT P6SM TSRA BKN025CB
     FM212300 30011KT 3SM SHRA VCTS OVC020CB
     FM220100 33012G23KT P6SM -SHRA BKN030=

USA.gov is the U.S. government's official web portal to all federal, state and local government web resources and services.